Архив погоды в Гайнах

Метеограмма Гайны
Понедельник, 23 Июля
Время местн. Темп Ветер Видим Явления Облачность нижн/средн/верх Атм. давл. Влжн Точка росы ВНГО R Сост. почвы Tg s
Напр Скр Прв ур.ст ур.м изм
17:00 +26.1° Ю-З 1 - 20 км - ясно 750 766 -0.8 36% +10° более 2.5 км - - - -
14:00 +24.5° Ю,Ю-В 2 - 20 км - ясно 750 767 -0.4 40% +9.9° более 2.5 км - - - -
11:00 +22.8° штиль 0 - 20 км - ясно 751 768 -0.4 42% +9.1° более 2.5 км - - - -
08:00 +17.6° С 1 - 20 км - ясно 751 768 +0.3 60% +9.7° более 2.5 км 0 Влажная (без луж) +10° -
05:00 +8° штиль 0 - 20 км - незначительная облачность 751 769 +0.8 99% +7.9° более 2.5 км - - - -
02:00 +11.3° Ю,Ю-З 1 - 20 км - незначительная облачность 750 768 +0.5 87% +9.3° более 2.5 км - - - -
Воскресенье, 22 Июля
Время местн. Темп Ветер Видим Явления Облачность нижн/средн/верх Атм. давл. Влжн Точка росы ВНГО R Сост. почвы Tg s
Напр Скр Прв ур.ст ур.м изм
23:00 +13.9° Ю 1 - 20 км - ясно 750 767 +0.1 82% +10.9° более 2.5 км - - - -
20:00 +21.8° Ю-В 2 - 20 км - ясно 749 767 -0.5 40% +7.7° более 2.5 км 0 - - -
17:00 +22.6° В,Ю-В 4 - 20 км - ясно 750 767 -0.9 34% +6.1° более 2.5 км - - - -
14:00 +21.6° В,Ю-В 5 - 20 км - незначительная облачность 751 768 -0.2 38% +6.8° более 2.5 км - - - -
11:00 +20.1° Ю-В 4 - 20 км - переменная облачность 751 769 -0.2 46% +8.2° 1.5 км - - - -
08:00 +14.8° В,Ю-В 3 - 20 км - ясно 752 769 +0.5 71% +9.6° более 2.5 км 0 Сухая (без трещин) +11° -
05:00 +11.1° В,Ю-В 2 - 20 км - ясно 751 769 +1.1 86% +8.8° более 2.5 км - - - -
02:00 +13.4° Ю-В 1 - 20 км - ясно 750 768 +0.8 83% +10.6° более 2.5 км - - - -
Суббота, 21 Июля
Время местн. Темп Ветер Видим Явления Облачность нижн/средн/верх Атм. давл. Влжн Точка росы ВНГО R Сост. почвы Tg s
Напр Скр Прв ур.ст ур.м изм
23:00 +16.4° В,Ю-В 2 - 20 км - ясно 749 767 +0.2 69% +10.8° более 2.5 км - - - -
20:00 +22.5° В 4 - 20 км - ясно 749 766 -0.7 45% +9.9° более 2.5 км 0 - - -
17:00 +23.3° В 5 - 20 км - переменная облачность 750 767 -0.7 45% +10.8° 1 км - - - -
14:00 +22.3° В,Ю-В 5 - 20 км - переменная облачность 750 767 -0.4 45% +9.9° 1 км - - - -
11:00 +20.9° В 5 - 20 км - переменная облачность 751 768 -0.2 55% +11.6° 1 км - - - -
08:00 +16.4° В 3 - 20 км - ясно 751 768 +0.6 71% +11.1° более 2.5 км 0 Сухая (без трещин) +12° -
05:00 +12.4° В 3 - 20 км - ясно 750 768 +0.5 86% +10.2° более 2.5 км - - - -
02:00 +14.6° В,Ю-В 3 - 20 км - незначительная облачность 750 767 +1.1 77% +10.7° более 2.5 км - - - -
Пятница, 20 Июля
Время местн. Темп Ветер Видим Явления Облачность нижн/средн/верх Атм. давл. Влжн Точка росы ВНГО R Сост. почвы Tg s
Напр Скр Прв ур.ст ур.м изм
23:00 +17.8° В,Ю-В 2 - 20 км - незначительная облачность 749 766 +1.1 74% +13.1° 1 км - - - -
20:00 +23.8° В 3 - 20 км - переменная облачность 748 765 -0.2 53% +13.6° 1 км 0 - - -
17:00 +25.3° В 6 - 20 км - облачно с прояснениями 748 765 -0.2 47% +13.2° 1 км - - - -
14:00 +24.7° В 5 - 20 км - облачно с прояснениями 748 765 +0.1 49% +13.3° 1 км - - - -